Time;durP1;ratioP1;P1;durP2;ratioP2;P2;SDS_P1;SDS_P2;PMS_P1;PMS_P2;Temp;Humidity;BMP_temperature;BMP_pressure;BME280_temperature;BME280_humidity;BME280_pressure;Samples;Min_cycle;Max_cycle;Signal;HPM_P1;HPM_P2
2022/03/26 00:01:04;;;;;;;21.63;10.97;;;;;;;3.23;100.00;100439.94;1796280;79;21511;-70
2022/03/26 00:03:32;;;;;;;21.03;11.67;;;;;;;3.19;100.00;100439.80;1776595;80;21034;-70
2022/03/26 00:05:59;;;;;;;23.60;11.37;;;;;;;3.17;100.00;100440.86;1775712;80;21018;-69
2022/03/26 00:08:26;;;;;;;25.37;13.27;;;;;;;3.15;100.00;100437.00;1796560;80;21480;-71
2022/03/26 00:10:55;;;;;;;27.53;17.53;;;;;;;3.14;100.00;100435.28;1796248;79;21066;-70
2022/03/26 00:13:23;;;;;;;37.27;26.90;;;;;;;3.15;100.00;100437.00;1796339;79;21038;-69
2022/03/26 00:15:50;;;;;;;34.57;22.07;;;;;;;3.14;100.00;100434.44;1765411;80;21074;-70
2022/03/26 00:18:17;;;;;;;26.03;16.97;;;;;;;3.06;100.00;100428.30;1796366;80;20991;-70
2022/03/26 00:20:45;;;;;;;23.60;14.20;;;;;;;2.98;100.00;100433.37;1765459;80;21070;-71
2022/03/26 00:23:12;;;;;;;20.90;11.57;;;;;;;2.90;100.00;100434.41;1796296;80;21019;-70
2022/03/26 00:25:40;;;;;;;26.17;13.03;;;;;;;2.80;100.00;100427.56;1796367;80;21038;-71
2022/03/26 00:28:08;;;;;;;23.37;12.10;;;;;;;2.71;100.00;100434.42;1796252;79;21039;-70
2022/03/26 00:30:36;;;;;;;22.37;11.07;;;;;;;2.63;100.00;100429.62;1796466;80;21035;-70
2022/03/26 00:33:03;;;;;;;23.47;12.23;;;;;;;2.54;100.00;100426.28;1765392;80;21050;-70
2022/03/26 00:35:31;;;;;;;22.13;11.63;;;;;;;2.49;100.00;100427.58;1796479;80;21071;-69
2022/03/26 00:37:58;;;;;;;24.47;11.90;;;;;;;2.42;100.00;100428.48;1796341;80;21066;-71
2022/03/26 00:40:26;;;;;;;22.17;11.93;;;;;;;2.37;100.00;100434.14;1796166;80;21034;-70
2022/03/26 00:42:53;;;;;;;22.30;11.80;;;;;;;2.32;100.00;100428.77;1796487;80;21074;-70
2022/03/26 00:45:24;;;;;;;21.80;11.07;;;;;;;2.27;100.00;100433.11;1796344;80;21026;-70
2022/03/26 00:47:51;;;;;;;23.97;12.40;;;;;;;2.22;100.00;100438.76;1792967;80;21043;-70
2022/03/26 00:50:19;;;;;;;37.40;26.63;;;;;;;2.18;100.00;100424.39;1790260;80;21098;-70
2022/03/26 00:52:47;;;;;;;35.67;24.80;;;;;;;2.14;100.00;100433.09;1791516;79;21067;-70
2022/03/26 00:55:15;;;;;;;41.77;29.00;;;;;;;2.11;100.00;100427.13;1817800;79;21030;-70
2022/03/26 00:57:43;;;;;;;33.17;23.60;;;;;;;2.05;100.00;100433.74;1817742;79;21062;-71
2022/03/26 01:00:14;;;;;;;31.60;21.40;;;;;;;2.01;100.00;100426.44;1817497;79;20999;-69
2022/03/26 01:02:42;;;;;;;30.60;18.63;;;;;;;1.95;100.00;100429.55;1818042;79;21436;-70
2022/03/26 01:05:10;;;;;;;26.20;15.97;;;;;;;1.91;100.00;100433.36;1817656;79;21085;-70
2022/03/26 01:07:39;;;;;;;26.17;15.43;;;;;;;1.84;100.00;100429.41;1817647;79;21503;-70
2022/03/26 01:10:09;;;;;;;24.33;14.40;;;;;;;1.78;100.00;100433.84;1794117;79;21042;-69
2022/03/26 01:12:36;;;;;;;23.60;12.50;;;;;;;1.70;100.00;100428.56;1804355;79;21032;-70
2022/03/26 01:15:05;;;;;;;21.23;12.10;;;;;;;1.65;100.00;100424.50;1788871;80;21056;-70
2022/03/26 01:17:34;;;;;;;22.27;11.37;;;;;;;1.61;100.00;100425.20;1789917;80;21106;-69
2022/03/26 01:20:04;;;;;;;22.27;10.77;;;;;;;1.59;100.00;100427.58;1765894;80;21027;-71
2022/03/26 01:22:33;;;;;;;24.27;11.23;;;;;;;1.58;100.00;100420.55;1788970;80;21063;-70
2022/03/26 01:25:02;;;;;;;23.97;12.27;;;;;;;1.56;100.00;100427.77;1788612;80;21060;-70
2022/03/26 01:27:29;;;;;;;22.80;11.83;;;;;;;1.55;100.00;100426.08;1764692;80;21047;-70
2022/03/26 01:29:57;;;;;;;22.93;11.53;;;;;;;1.54;100.00;100429.69;1764499;80;21474;-70
2022/03/26 01:32:25;;;;;;;24.87;12.83;;;;;;;1.53;100.00;100432.00;1788769;80;21087;-70
2022/03/26 01:34:53;;;;;;;23.50;12.40;;;;;;;1.51;100.00;100420.95;1788511;80;21537;-70
2022/03/26 01:37:20;;;;;;;25.37;13.40;;;;;;;1.49;100.00;100419.36;1764685;80;20992;-70
2022/03/26 01:39:47;;;;;;;39.00;22.33;;;;;;;1.50;100.00;100422.38;1788486;80;21004;-70
2022/03/26 01:42:14;;;;;;;34.33;18.70;;;;;;;1.49;100.00;100423.36;1788844;80;21528;-70
2022/03/26 01:44:42;;;;;;;30.50;16.93;;;;;;;1.47;100.00;100419.46;1764662;80;21576;-71
2022/03/26 01:47:09;;;;;;;36.63;25.57;;;;;;;1.46;100.00;100419.07;1789527;80;21103;-70
2022/03/26 01:49:37;;;;;;;40.53;29.37;;;;;;;1.45;100.00;100420.50;1794506;80;21059;-70
2022/03/26 01:52:09;;;;;;;36.13;21.83;;;;;;;1.42;100.00;100420.24;1794728;80;21548;-70
2022/03/26 01:54:35;;;;;;;31.07;17.27;;;;;;;1.41;100.00;100421.19;1795716;80;21034;-70
2022/03/26 01:57:02;;;;;;;29.60;15.67;;;;;;;1.40;100.00;100414.62;1796442;79;20999;-70
2022/03/26 01:59:29;;;;;;;33.17;16.70;;;;;;;1.37;100.00;100414.37;1749713;80;21042;-70
2022/03/26 02:01:57;;;;;;;30.17;15.30;;;;;;;1.35;100.00;100414.08;1796274;79;21463;-71
2022/03/26 02:04:25;;;;;;;27.03;14.00;;;;;;;1.32;100.00;100420.48;1796071;80;21034;-70
2022/03/26 02:06:53;;;;;;;30.03;14.50;;;;;;;1.27;100.00;100415.45;1775272;80;21069;-71
2022/03/26 02:09:22;;;;;;;29.40;13.73;;;;;;;1.22;100.00;100408.27;1796387;79;20979;-71
2022/03/26 02:11:49;;;;;;;32.37;14.40;;;;;;;1.19;100.00;100411.58;1795867;80;21030;-70
2022/03/26 02:14:16;;;;;;;31.20;15.07;;;;;;;1.12;100.00;100416.00;1794666;80;21544;-70
2022/03/26 02:16:44;;;;;;;30.17;14.63;;;;;;;1.07;100.00;100417.27;1763511;80;21060;-69
2022/03/26 02:19:13;;;;;;;32.83;15.33;;;;;;;1.03;100.00;100414.44;1794674;80;21477;-70
2022/03/26 02:21:41;;;;;;;32.90;17.13;;;;;;;0.97;100.00;100411.67;1794547;80;21000;-71
2022/03/26 02:24:08;;;;;;;32.67;17.20;;;;;;;0.90;100.00;100417.02;1794947;80;21039;-71
2022/03/26 02:26:36;;;;;;;32.93;17.03;;;;;;;0.81;100.00;100410.48;1794471;80;21508;-70
2022/03/26 02:29:11;;;;;;;40.13;20.63;;;;;;;0.76;100.00;100412.58;1794593;80;21063;-70
2022/03/26 02:31:38;;;;;;;37.03;20.20;;;;;;;0.70;100.00;100409.84;1794443;80;21477;-70
2022/03/26 02:34:07;;;;;;;40.43;21.07;;;;;;;0.64;100.00;100418.23;1794721;80;21031;-70
2022/03/26 02:36:35;;;;;;;35.13;20.20;;;;;;;0.59;100.00;100419.49;1794571;80;21493;-70
2022/03/26 02:39:04;;;;;;;36.30;19.47;;;;;;;0.54;100.00;100418.45;1794564;80;21082;-71
2022/03/26 02:41:34;;;;;;;35.17;18.87;;;;;;;0.47;100.00;100411.31;1794641;80;21012;-71
2022/03/26 02:44:01;;;;;;;37.40;18.20;;;;;;;0.41;100.00;100413.51;1793994;80;21647;-71
2022/03/26 02:46:28;;;;;;;34.10;18.67;;;;;;;0.36;100.00;100410.67;1763772;80;21036;-70
2022/03/26 02:48:56;;;;;;;37.03;19.20;;;;;;;0.32;100.00;100409.62;1794374;80;21039;-70
2022/03/26 02:51:24;;;;;;;33.67;18.03;;;;;;;0.28;100.00;100416.94;1794370;80;21624;-70
2022/03/26 02:53:52;;;;;;;37.53;18.37;;;;;;;0.24;100.00;100406.61;1795386;80;21006;-70
2022/03/26 02:56:20;;;;;;;36.63;18.37;;;;;;;0.22;100.00;100408.51;1796161;79;21046;-71
2022/03/26 02:58:48;;;;;;;39.43;19.13;;;;;;;0.17;100.00;100411.44;1775187;80;21062;-70
2022/03/26 03:01:15;;;;;;;38.43;18.73;;;;;;;0.14;100.00;100416.94;1796351;79;21027;-70
2022/03/26 03:03:43;;;;;;;35.60;19.17;;;;;;;0.10;100.00;100414.10;1796056;79;21015;-70
2022/03/26 03:06:10;;;;;;;40.60;19.77;;;;;;;0.06;100.00;100411.27;1797671;79;21019;-71
2022/03/26 03:08:39;;;;;;;37.90;18.70;;;;;;;0.01;100.00;100414.20;1796743;79;21015;-70
2022/03/26 03:11:07;;;;;;;33.30;17.73;;;;;;;-0.04;100.00;100414.47;1796386;80;21054;-71
2022/03/26 03:13:35;;;;;;;36.10;19.03;;;;;;;-0.10;100.00;100413.53;1794994;79;21003;-70
2022/03/26 03:16:03;;;;;;;34.80;18.50;;;;;;;-0.14;100.00;100413.34;1794558;80;21067;-70
2022/03/26 03:18:30;;;;;;;33.00;18.70;;;;;;;-0.18;100.00;100408.30;1794700;80;21552;-70
2022/03/26 03:20:57;;;;;;;34.17;18.57;;;;;;;-0.21;100.00;100409.35;1794387;80;21059;-70
2022/03/26 03:23:24;;;;;;;31.10;17.40;;;;;;;-0.22;100.00;100407.14;1794487;80;21036;-69
2022/03/26 03:25:53;;;;;;;34.67;19.27;;;;;;;-0.20;100.00;100409.71;1794675;80;21004;-70
2022/03/26 03:28:22;;;;;;;31.90;17.90;;;;;;;-0.18;100.00;100400.32;1790047;80;21496;-70
2022/03/26 03:30:51;;;;;;;32.93;18.23;;;;;;;-0.15;100.00;100397.00;1794463;80;20992;-69
2022/03/26 03:33:19;;;;;;;32.77;17.80;;;;;;;-0.10;100.00;100398.06;1763834;80;21071;-69
2022/03/26 03:35:46;;;;;;;34.50;18.67;;;;;;;-0.05;100.00;100393.31;1794230;80;21082;-70
2022/03/26 03:38:13;;;;;;;35.90;17.73;;;;;;;-0.01;100.00;100389.52;1763503;80;21016;-70
2022/03/26 03:40:42;;;;;;;32.97;17.33;;;;;;;0.01;100.00;100392.92;1794599;80;21581;-70
2022/03/26 03:43:09;;;;;;;35.67;18.57;;;;;;;0.03;100.00;100390.17;1794647;80;21016;-70
2022/03/26 03:45:38;;;;;;;35.33;19.53;;;;;;;0.03;100.00;100387.52;1764412;80;20981;-69
2022/03/26 03:48:06;;;;;;;35.63;18.63;;;;;;;0.04;100.00;100386.58;1761053;80;21012;-70
2022/03/26 03:50:34;;;;;;;43.73;20.90;;;;;;;0.02;100.00;100385.34;1786291;80;21584;-70
2022/03/26 03:53:03;;;;;;;37.97;19.27;;;;;;;0.02;100.00;100390.66;1786259;80;21041;-69
2022/03/26 03:55:30;;;;;;;36.93;19.77;;;;;;;0.02;100.00;100381.35;1787702;79;21003;-70
2022/03/26 03:57:58;;;;;;;38.70;20.57;;;;;;;0.01;100.00;100379.63;1787760;80;20999;-70
2022/03/26 04:00:25;;;;;;;37.80;21.40;;;;;;;0.02;100.00;100384.47;1787860;79;21054;-70
2022/03/26 04:02:54;;;;;;;42.40;23.27;;;;;;;0.00;100.00;100384.59;1787503;80;21046;-71
2022/03/26 04:05:22;;;;;;;41.20;22.70;;;;;;;0.01;100.00;100388.94;1766658;80;21461;-70
2022/03/26 04:07:50;;;;;;;43.30;22.10;;;;;;;-0.01;100.00;100387.70;1787789;80;21512;-70
2022/03/26 04:10:20;;;;;;;47.57;22.93;;;;;;;-0.02;100.00;100383.34;1787664;79;21081;-70
2022/03/26 04:12:47;;;;;;;43.17;22.53;;;;;;;0.01;100.00;100384.95;1787939;79;21032;-71
2022/03/26 04:15:16;;;;;;;42.83;23.13;;;;;;;0.02;100.00;100386.67;1787593;80;21505;-71
2022/03/26 04:17:44;;;;;;;45.93;25.53;;;;;;;0.04;100.00;100394.07;1787680;80;21046;-71
2022/03/26 04:20:12;;;;;;;44.17;23.57;;;;;;;0.05;100.00;100389.60;1787556;80;21545;-70
2022/03/26 04:22:40;;;;;;;49.23;24.10;;;;;;;0.07;100.00;100390.36;1757150;80;21062;-70
2022/03/26 04:25:09;;;;;;;41.43;22.73;;;;;;;0.09;100.00;100390.66;1788099;79;21110;-70
2022/03/26 04:27:43;;;;;;;40.47;20.70;;;;;;;0.10;100.00;100397.66;1764570;81;21007;-69
2022/03/26 04:30:12;;;;;;;42.03;21.67;;;;;;;0.13;100.00;100397.48;1765264;80;21039;-71
2022/03/26 04:32:39;;;;;;;42.93;21.53;;;;;;;0.15;100.00;100398.23;1764663;81;21562;-70
2022/03/26 04:35:09;;;;;;;41.10;22.40;;;;;;;0.17;100.00;100398.15;1745165;81;21035;-71
2022/03/26 04:37:37;;;;;;;46.60;22.03;;;;;;;0.20;100.00;100396.63;1764781;81;21038;-70
2022/03/26 04:40:05;;;;;;;42.27;22.87;;;;;;;0.23;100.00;100404.43;1764707;81;21563;-71
2022/03/26 04:42:33;;;;;;;52.77;25.43;;;;;;;0.29;100.00;100400.04;1764589;81;21026;-70
2022/03/26 04:45:00;;;;;;;45.27;23.40;;;;;;;0.34;100.00;100393.95;1764553;81;21101;-70
2022/03/26 04:47:27;;;;;;;43.67;23.73;;;;;;;0.44;100.00;100397.36;1764495;81;21035;-71
2022/03/26 04:49:55;;;;;;;47.63;26.80;;;;;;;0.55;100.00;100393.07;1788724;80;21010;-69
2022/03/26 04:52:22;;;;;;;53.93;30.07;;;;;;;0.69;100.00;100399.30;1790686;80;20998;-70
2022/03/26 04:54:50;;;;;;;50.17;26.47;;;;;;;0.78;100.00;100400.06;1800322;78;20970;-70
2022/03/26 04:57:18;;;;;;;44.03;22.73;;;;;;;0.85;100.00;100390.72;1837533;78;21671;-70
2022/03/26 04:59:46;;;;;;;42.00;23.43;;;;;;;0.93;100.00;100391.53;1837397;78;21041;-70
2022/03/26 05:02:13;;;;;;;43.00;23.53;;;;;;;1.01;100.00;100394.56;1837618;78;21006;-72
2022/03/26 05:04:41;;;;;;;37.70;22.03;;;;;;;1.09;100.00;100392.70;1805070;78;21057;-72
2022/03/26 05:09:54;;;;;;;49.80;24.73;;;;;;;1.30;100.00;100393.94;1837734;78;21063;-70
2022/03/26 05:12:22;;;;;;;47.27;24.87;;;;;;;1.44;100.00;100392.16;1820162;78;21052;-71
2022/03/26 05:14:51;;;;;;;45.60;23.67;;;;;;;1.57;100.00;100384.18;1788401;80;21008;-69
2022/03/26 05:17:18;;;;;;;44.33;25.87;;;;;;;1.71;100.00;100390.26;1788387;80;21068;-71
2022/03/26 05:19:47;;;;;;;53.67;26.10;;;;;;;1.87;100.00;100387.38;1764393;80;21052;-70
2022/03/26 05:22:15;;;;;;;45.90;25.73;;;;;;;2.03;100.00;100392.99;1788467;80;21008;-70
2022/03/26 05:24:43;;;;;;;53.40;27.40;;;;;;;2.20;100.00;100386.48;1788414;80;21052;-70
2022/03/26 05:27:11;;;;;;;50.53;27.23;;;;;;;2.34;100.00;100397.02;1788665;80;20993;-70
2022/03/26 05:29:39;;;;;;;54.50;28.37;;;;;;;2.49;100.00;100387.54;1788247;80;20992;-70
2022/03/26 05:32:08;;;;;;;48.87;27.07;;;;;;;2.65;100.00;100394.31;1788504;80;20984;-70
2022/03/26 05:34:36;;;;;;;51.10;27.00;;;;;;;2.79;100.00;100390.64;1764637;80;21103;-70
2022/03/26 05:37:04;;;;;;;47.60;27.57;;;;;;;2.95;100.00;100397.53;1788404;80;21044;-70
2022/03/26 05:39:32;;;;;;;51.43;27.67;;;;;;;3.10;100.00;100400.41;1788643;79;21063;-70
2022/03/26 05:41:59;;;;;;;50.70;28.27;;;;;;;3.25;100.00;100394.88;1788547;80;21524;-70
2022/03/26 05:44:26;;;;;;;50.60;27.47;;;;;;;3.39;100.00;100405.38;1788425;80;21094;-68
2022/03/26 05:46:54;;;;;;;46.63;26.87;;;;;;;3.54;100.00;100398.00;1764304;80;21337;-70
2022/03/26 05:49:22;;;;;;;50.47;28.67;;;;;;;3.72;100.00;100401.09;1788505;80;21031;-69
2022/03/26 05:51:50;;;;;;;45.90;27.07;;;;;;;3.91;100.00;100404.08;1788524;80;21548;-69
2022/03/26 05:54:17;;;;;;;46.37;26.67;;;;;;;4.14;100.00;100408.97;1760034;81;21079;-69
2022/03/26 05:56:54;;;;;;;54.73;28.00;;;;;;;4.35;100.00;100410.40;1735849;81;21089;-70
2022/03/26 05:59:23;;;;;;;47.60;26.50;;;;;;;4.53;100.00;100407.23;1735440;81;21075;-69
2022/03/26 06:01:54;;;;;;;45.43;26.73;;;;;;;4.77;100.00;100411.61;1668504;85;21119;-69
2022/03/26 06:04:21;;;;;;;45.87;27.43;;;;;;;4.95;100.00;100408.25;1668540;86;21565;-69
2022/03/26 06:06:49;;;;;;;46.67;26.67;;;;;;;5.11;100.00;100411.86;1645736;86;21573;-68
2022/03/26 06:09:17;;;;;;;50.90;29.53;;;;;;;5.25;100.00;100409.87;1668455;86;21025;-69
2022/03/26 06:11:45;;;;;;;48.07;27.27;;;;;;;5.46;100.00;100404.05;1670954;83;21079;-69
2022/03/26 06:14:17;;;;;;;52.97;29.30;;;;;;;5.71;100.00;100409.52;1696495;84;21079;-68
2022/03/26 06:16:45;;;;;;;48.83;29.33;;;;;;;5.91;100.00;100402.94;1696335;84;21090;-68
2022/03/26 06:19:14;;;;;;;53.63;28.90;;;;;;;6.12;100.00;100406.98;1696169;84;21165;-69
2022/03/26 06:21:41;;;;;;;48.63;28.20;;;;;;;6.32;100.00;100404.39;1696283;84;21129;-68
2022/03/26 06:24:11;;;;;;;48.20;27.70;;;;;;;6.53;100.00;100406.52;1696219;84;21640;-68
2022/03/26 06:26:39;;;;;;;49.10;26.77;;;;;;;6.70;100.00;100402.34;1696130;84;21573;-69
2022/03/26 06:29:06;;;;;;;47.13;26.40;;;;;;;6.87;100.00;100399.50;1696156;84;21064;-69
2022/03/26 06:31:34;;;;;;;44.90;26.30;;;;;;;7.07;100.00;100396.84;1695608;84;21560;-69
2022/03/26 06:34:01;;;;;;;41.40;24.43;;;;;;;7.28;100.00;100402.94;1695328;84;21052;-69
2022/03/26 06:36:30;;;;;;;46.83;25.43;;;;;;;7.45;100.00;100401.36;1695762;84;21140;-68
2022/03/26 06:38:57;;;;;;;44.67;25.43;;;;;;;7.69;100.00;100390.17;1695689;84;21135;-69
2022/03/26 06:41:24;;;;;;;47.90;26.00;;;;;;;7.96;100.00;100387.21;1695680;84;21146;-69
2022/03/26 06:43:52;;;;;;;42.33;24.87;;;;;;;8.26;100.00;100389.31;1697082;84;21059;-68
2022/03/26 06:46:19;;;;;;;68.00;32.13;;;;;;;8.49;100.00;100383.09;1695752;84;21076;-67
2022/03/26 06:48:46;;;;;;;57.30;28.57;;;;;;;8.69;100.00;100394.13;1695010;84;21127;-67
2022/03/26 06:51:15;;;;;;;56.23;27.33;;;;;;;8.83;100.00;100386.52;1695043;84;21099;-68
2022/03/26 06:53:42;;;;;;;41.90;26.00;;;;;;;8.97;100.00;100392.73;1702818;83;21049;-67
2022/03/26 06:56:09;;;;;;;50.52;27.87;;;;;;;9.10;100.00;100389.18;1698022;84;21067;-68
2022/03/26 06:58:41;;;;;;;48.27;28.33;;;;;;;9.27;100.00;100383.94;1728195;81;21039;-68
2022/03/26 07:01:09;;;;;;;50.03;27.07;;;;;;;9.46;100.00;100386.48;1736585;81;21030;-71
2022/03/26 07:03:36;;;;;;;40.70;23.90;;;;;;;9.70;100.00;100379.57;1758357;81;21081;-69
2022/03/26 07:06:04;;;;;;;40.63;21.15;;;;;;;9.87;100.00;100377.34;1759347;81;21070;-69
2022/03/26 07:08:31;;;;;;;33.90;17.50;;;;;;;10.05;100.00;100377.80;1734905;81;21051;-69
2022/03/26 07:10:59;;;;;;;44.27;19.70;;;;;;;10.15;100.00;100370.94;1766356;79;20973;-68
2022/03/26 07:13:26;;;;;;;27.95;16.45;;;;;;;10.18;100.00;100371.95;1788648;79;21051;-69
2022/03/26 07:15:55;;;;;;;30.10;13.80;;;;;;;10.29;100.00;100374.88;1788189;80;21039;-69
2022/03/26 07:18:24;;;;;;;26.57;13.45;;;;;;;10.38;100.00;100366.69;1765950;80;21573;-68
2022/03/26 07:20:57;;;;;;;47.25;14.53;;;;;;;10.57;100.00;100361.55;1790122;80;21062;-70
2022/03/26 07:23:22;;;;;;;24.55;12.13;;;;;;;10.74;100.00;100365.65;1785871;80;21024;-70
2022/03/26 07:25:50;;;;;;;23.05;12.47;;;;;;;10.92;100.00;100366.88;1789622;80;21007;-65
2022/03/26 07:28:17;;;;;;;22.27;10.72;;;;;;;11.11;100.00;100362.52;1765705;80;21078;-69
2022/03/26 07:30:44;;;;;;;22.00;9.40;;;;;;;11.24;100.00;100353.91;1765425;80;21086;-70
2022/03/26 07:33:12;;;;;;;18.27;9.48;;;;;;;11.23;100.00;100354.09;1765695;80;21042;-69
2022/03/26 07:35:39;;;;;;;23.67;9.38;;;;;;;11.26;100.00;100355.09;1789033;80;21035;-66
2022/03/26 07:38:07;;;;;;;23.40;11.03;;;;;;;11.28;99.49;100351.22;1789025;80;21046;-67
2022/03/26 07:40:35;;;;;;;19.40;9.05;;;;;;;11.44;99.46;100346.80;1764901;80;21583;-68
2022/03/26 07:43:03;;;;;;;16.48;8.83;;;;;;;11.74;99.88;100348.84;1789716;80;21098;-67
2022/03/26 07:45:30;;;;;;;17.20;8.88;;;;;;;11.89;95.05;100339.48;1789394;80;21034;-67
2022/03/26 07:47:57;;;;;;;17.07;8.60;;;;;;;11.92;93.30;100336.98;1788953;80;21376;-68
2022/03/26 07:50:25;;;;;;;19.62;8.43;;;;;;;11.99;92.32;100333.92;1764963;80;21066;-68
2022/03/26 07:52:53;;;;;;;33.45;10.50;;;;;;;12.05;90.68;100330.50;1792256;79;21066;-67
2022/03/26 07:55:22;;;;;;;19.40;8.73;;;;;;;12.06;88.79;100327.31;1822561;79;21312;-69
2022/03/26 07:57:49;;;;;;;23.73;10.13;;;;;;;12.19;88.18;100324.04;1799908;79;21055;-68
2022/03/26 08:00:18;;;;;;;18.73;8.50;;;;;;;12.23;85.24;100311.81;1821923;79;21046;-68
2022/03/26 08:02:46;;;;;;;15.43;7.87;;;;;;;12.29;85.27;100301.13;1822575;79;21065;-67
2022/03/26 08:05:13;;;;;;;19.00;9.05;;;;;;;12.46;85.29;100288.31;1799337;79;21089;-67
2022/03/26 08:07:41;;;;;;;24.27;10.45;;;;;;;12.60;82.01;100287.24;1799210;79;21089;-68
2022/03/26 08:10:10;;;;;;;46.58;10.75;;;;;;;12.59;78.85;100278.76;1821908;78;21041;-70
2022/03/26 08:12:37;;;;;;;36.42;10.43;;;;;;;12.45;77.69;100274.44;1803476;79;21111;-68
2022/03/26 08:15:06;;;;;;;19.65;8.48;;;;;;;12.25;77.56;100271.81;1763935;80;21104;-68
2022/03/26 08:17:34;;;;;;;27.15;9.25;;;;;;;12.27;77.98;100267.06;1788172;80;21512;-69
2022/03/26 08:20:04;;;;;;;21.07;8.65;;;;;;;12.51;76.75;100262.86;1787650;80;20996;-69
2022/03/26 08:22:34;;;;;;;25.48;8.73;;;;;;;12.57;74.29;100259.97;1788400;80;21012;-69
2022/03/26 08:25:04;;;;;;;15.03;7.78;;;;;;;12.64;73.91;100251.94;1787825;80;21521;-69
2022/03/26 08:27:32;;;;;;;14.45;7.83;;;;;;;12.60;73.13;100250.10;1763397;80;21107;-68
2022/03/26 08:29:59;;;;;;;24.37;7.95;;;;;;;12.58;73.29;100241.30;1787478;80;21009;-70
2022/03/26 08:32:26;;;;;;;21.68;8.33;;;;;;;12.72;73.95;100242.41;1790422;80;21016;-67
2022/03/26 08:34:53;;;;;;;19.20;10.70;;;;;;;12.94;72.81;100229.84;1789777;80;21047;-68
2022/03/26 08:37:21;;;;;;;87.67;15.25;;;;;;;13.26;70.31;100227.38;1788443;80;21017;-68
2022/03/26 08:39:49;;;;;;;22.13;8.20;;;;;;;13.55;65.24;100231.20;1788885;80;21095;-68
2022/03/26 08:42:18;;;;;;;63.00;10.72;;;;;;;13.48;62.86;100228.38;1788030;80;21215;-67
2022/03/26 08:44:45;;;;;;;18.00;7.50;;;;;;;13.57;61.94;100220.98;1763561;80;21079;-68
2022/03/26 08:47:13;;;;;;;23.00;7.72;;;;;;;13.65;60.08;100214.61;1787577;80;21055;-68
2022/03/26 08:49:44;;;;;;;16.20;6.97;;;;;;;13.71;58.79;100222.03;1784696;80;21521;-69
2022/03/26 08:52:09;;;;;;;18.87;8.15;;;;;;;13.63;57.31;100229.77;1776393;80;21012;-68
2022/03/26 08:54:36;;;;;;;20.20;8.95;;;;;;;13.58;57.85;100224.53;1769375;80;21085;-69
2022/03/26 08:57:04;;;;;;;16.95;8.43;;;;;;;13.71;58.46;100219.31;1795035;79;21022;-69
2022/03/26 08:59:31;;;;;;;20.70;8.25;;;;;;;13.98;58.68;100219.14;1795671;79;21514;-69
2022/03/26 09:01:59;;;;;;;25.15;9.20;;;;;;;14.20;56.10;100194.23;1795041;79;21034;-70
2022/03/26 09:04:26;;;;;;;22.35;9.75;;;;;;;14.20;56.10;100194.23;1795651;79;21514;-69
2022/03/26 09:06:53;;;;;;;26.17;12.10;;;;;;;14.18;55.80;100209.04;1794063;80;21089;-68
2022/03/26 09:09:21;;;;;;;45.15;22.48;;;;;;;13.98;56.26;100202.84;1782533;80;21075;-67
2022/03/26 09:11:50;;;;;;;52.88;24.55;;;;;;;13.98;57.71;100200.64;1782624;80;21477;-69
2022/03/26 09:14:17;;;;;;;30.40;15.65;;;;;;;14.11;57.11;100196.75;1782918;80;20997;-69
2022/03/26 09:16:44;;;;;;;52.53;13.30;;;;;;;13.97;56.31;100193.50;1751720;80;21067;-69
2022/03/26 09:19:12;;;;;;;27.45;11.28;;;;;;;13.91;57.55;100184.77;1787422;80;21021;-68
2022/03/26 09:21:39;;;;;;;24.60;11.73;;;;;;;13.91;57.55;100184.77;1795270;79;21035;-67
2022/03/26 09:24:07;;;;;;;49.60;13.00;;;;;;;14.04;58.26;100180.34;1794925;79;21069;-68
2022/03/26 09:26:34;;;;;;;159.30;21.85;;;;;;;14.29;58.21;100174.56;1794898;79;21538;-69
2022/03/26 09:29:01;;;;;;;31.07;11.90;;;;;;;14.42;56.92;100167.89;1773805;80;21061;-69
2022/03/26 09:31:29;;;;;;;34.20;13.32;;;;;;;14.33;56.67;100163.62;1773807;80;22259;-69
2022/03/26 09:33:56;;;;;;;37.05;13.62;;;;;;;14.14;56.98;100171.03;1795883;80;21575;-68
2022/03/26 09:36:24;;;;;;;30.48;13.68;;;;;;;14.15;58.04;100166.77;1795877;80;21143;-67
2022/03/26 09:38:53;;;;;;;25.23;13.65;;;;;;;14.40;58.18;100160.98;1796041;80;21018;-68
2022/03/26 09:41:23;;;;;;;85.80;19.87;;;;;;;14.46;58.24;100146.59;1789950;79;21101;-69
2022/03/26 09:43:52;;;;;;;26.57;14.70;;;;;;;14.61;58.08;100139.24;1751757;82;21008;-68
2022/03/26 09:46:20;;;;;;;36.65;14.45;;;;;;;14.71;57.26;100140.78;1750842;81;21096;-69
2022/03/26 09:48:48;;;;;;;31.10;13.18;;;;;;;14.89;56.20;100126.20;1751814;82;21063;-66
2022/03/26 09:51:16;;;;;;;28.87;12.10;;;;;;;14.89;55.33;100137.08;1761578;81;21066;-68
2022/03/26 09:53:44;;;;;;;27.48;11.33;;;;;;;14.84;54.82;100124.58;1768874;81;21086;-69
2022/03/26 09:56:12;;;;;;;33.60;12.68;;;;;;;14.78;56.01;100109.88;1769465;81;21043;-68
2022/03/26 09:58:41;;;;;;;27.17;12.53;;;;;;;14.91;55.10;100124.61;1768329;81;21050;-66
2022/03/26 10:01:08;;;;;;;22.13;10.43;;;;;;;14.90;54.76;100117.50;1768724;81;21190;-68
2022/03/26 10:03:39;;;;;;;37.03;12.40;;;;;;;14.77;55.30;100104.63;1768777;81;21050;-68
2022/03/26 10:06:07;;;;;;;25.50;11.30;;;;;;;14.71;55.01;100106.23;1764521;81;21053;-66
2022/03/26 10:08:37;;;;;;;25.77;11.90;;;;;;;14.76;56.20;100104.30;1769097;80;20983;-69
2022/03/26 10:11:06;;;;;;;40.12;11.97;;;;;;;15.15;54.79;100092.84;1706316;83;21092;-69
2022/03/26 10:13:41;;;;;;;20.77;10.50;;;;;;;15.17;53.36;100088.56;1707094;83;21031;-68
2022/03/26 10:16:12;;;;;;;21.30;10.98;;;;;;;14.94;54.05;100083.38;1736287;83;21080;-69
2022/03/26 10:18:45;;;;;;;19.98;9.65;;;;;;;14.96;55.09;100075.85;1736718;83;21039;-69
2022/03/26 10:21:15;;;;;;;32.05;11.60;;;;;;;15.07;55.62;100075.32;1735788;83;21102;-68
2022/03/26 10:23:45;;;;;;;51.00;11.28;;;;;;;15.36;55.10;100071.49;1638412;88;21130;-68
2022/03/26 10:26:18;;;;;;;31.62;10.53;;;;;;;15.56;52.23;100061.20;1636208;88;21145;-68
2022/03/26 10:28:52;;;;;;;28.00;10.63;;;;;;;15.61;50.71;100064.70;1636956;88;21035;-68
2022/03/26 10:34:16;;;;;;;47.48;11.60;;;;;;;15.59;50.00;100059.45;1636809;87;21062;-68
2022/03/26 10:36:46;;;;;;;34.95;9.83;;;;;;;15.37;50.52;100045.11;1636458;88;21082;-69
2022/03/26 10:39:20;;;;;;;20.45;9.25;;;;;;;15.38;51.09;100042.16;1637110;88;21018;-69
2022/03/26 10:41:49;;;;;;;16.32;8.85;;;;;;;15.52;49.38;100019.06;1636121;88;21071;-69
2022/03/26 10:44:25;;;;;;;26.27;10.00;;;;;;;15.69;49.98;100022.28;1637117;88;21026;-69
2022/03/26 10:46:56;;;;;;;34.88;11.38;;;;;;;15.70;49.90;100014.41;1636660;88;21082;-68
2022/03/26 10:49:38;;;;;;;274.70;28.55;;;;;;;15.73;50.13;100007.19;1609349;89;21137;-69
2022/03/26 10:52:15;;;;;;;24.95;9.95;;;;;;;15.89;49.39;100005.47;1601472;90;21133;-69
2022/03/26 10:54:42;;;;;;;36.08;11.15;;;;;;;16.00;48.45;99999.92;1601869;89;21061;-70
2022/03/26 10:57:10;;;;;;;43.87;10.65;;;;;;;16.13;47.80;99996.39;1600376;90;21574;-69
2022/03/26 10:59:37;;;;;;;23.87;9.03;;;;;;;16.08;45.97;99979.28;1601116;90;21112;-69
2022/03/26 11:02:05;;;;;;;27.98;10.03;;;;;;;15.78;47.08;99967.09;1600674;90;21672;-69
2022/03/26 11:04:33;;;;;;;22.58;8.85;;;;;;;15.85;46.95;99967.40;1600686;90;21176;-69
2022/03/26 11:07:01;;;;;;;22.50;8.93;;;;;;;15.73;46.60;99958.95;1607304;87;21053;-70
2022/03/26 11:09:30;;;;;;;53.50;12.75;;;;;;;15.63;46.38;99962.59;1639688;87;21185;-70
2022/03/26 11:11:58;;;;;;;24.27;9.03;;;;;;;15.54;46.06;99960.58;1618380;87;21056;-69
2022/03/26 11:14:36;;;;;;;24.23;9.73;;;;;;;15.60;46.17;99951.27;1639640;87;21031;-69
2022/03/26 11:17:35;;;;;;;23.20;9.70;;;;;;;15.74;46.23;99942.95;1639236;87;21149;-70
2022/03/26 11:20:41;;;;;;;121.22;17.27;;;;;;;15.95;45.84;99942.44;1609255;89;21135;-69